createdAt,value
2018-07-15T00:02:33.879Z,17.29
2018-07-15T00:05:08.084Z,17.37
2018-07-15T00:07:41.854Z,17.37
2018-07-15T00:10:15.179Z,17.31
2018-07-15T00:12:47.701Z,17.20
2018-07-15T00:15:21.514Z,17.15
2018-07-15T00:17:55.563Z,17.14
2018-07-15T00:20:28.106Z,17.17
2018-07-15T00:23:01.090Z,17.21
2018-07-15T00:25:34.074Z,17.16
2018-07-15T00:28:07.632Z,17.18
2018-07-15T00:30:44.614Z,17.21
2018-07-15T00:33:18.145Z,17.08
2018-07-15T00:35:51.232Z,16.95
2018-07-15T00:38:25.841Z,16.88
2018-07-15T00:40:58.361Z,16.75
2018-07-15T00:43:30.876Z,16.62
2018-07-15T00:46:08.339Z,16.61
2018-07-15T00:48:40.874Z,16.63
2018-07-15T00:51:13.355Z,16.70
2018-07-15T00:53:47.339Z,16.78
2018-07-15T00:56:20.193Z,16.70
2018-07-15T00:58:53.564Z,16.56
2018-07-15T01:01:28.155Z,16.53
2018-07-15T01:04:00.721Z,16.32
2018-07-15T01:06:34.190Z,16.06
2018-07-15T01:09:10.717Z,15.83
2018-07-15T01:11:43.209Z,15.69
2018-07-15T01:14:16.838Z,15.59
2018-07-15T01:16:49.942Z,15.40
2018-07-15T01:19:22.409Z,15.30
2018-07-15T01:21:56.283Z,15.19
2018-07-15T01:24:29.141Z,15.15
2018-07-15T01:27:01.680Z,15.15
2018-07-15T01:29:34.165Z,15.30
2018-07-15T01:32:08.629Z,15.43
2018-07-15T01:34:40.933Z,15.52
2018-07-15T01:37:14.383Z,15.55
2018-07-15T01:39:47.221Z,15.58
2018-07-15T01:42:20.829Z,15.53
2018-07-15T01:44:53.500Z,15.48
2018-07-15T01:47:27.377Z,15.43
2018-07-15T01:49:59.840Z,15.28
2018-07-15T01:52:33.036Z,15.17
2018-07-15T01:55:06.038Z,15.11
2018-07-15T01:57:38.577Z,15.09
2018-07-15T02:00:17.990Z,15.09
2018-07-15T02:02:53.397Z,15.06
2018-07-15T02:05:25.972Z,14.96
2018-07-15T02:08:00.805Z,14.84
2018-07-15T02:10:33.598Z,14.73
2018-07-15T02:13:06.409Z,14.77
2018-07-15T02:15:39.109Z,14.87
2018-07-15T02:18:11.672Z,14.87
2018-07-15T02:20:44.281Z,14.83
2018-07-15T02:23:17.313Z,14.68
2018-07-15T02:25:50.081Z,14.58
2018-07-15T02:28:24.681Z,14.48
2018-07-15T02:31:02.582Z,14.38
2018-07-15T02:33:36.984Z,14.23
2018-07-15T02:36:09.585Z,14.12
2018-07-15T02:38:43.158Z,14.13
2018-07-15T02:41:16.649Z,14.05
2018-07-15T02:43:50.136Z,13.92
2018-07-15T02:46:24.696Z,13.87
2018-07-15T02:48:58.161Z,13.97
2018-07-15T02:51:30.976Z,14.16
2018-07-15T02:54:04.812Z,14.20
2018-07-15T02:56:37.367Z,14.18
2018-07-15T02:59:11.370Z,14.05
2018-07-15T03:01:44.151Z,14.02
2018-07-15T03:04:16.750Z,14.12
2018-07-15T03:06:51.490Z,14.17
2018-07-15T03:09:25.372Z,14.04
2018-07-15T03:11:57.886Z,13.85
2018-07-15T03:14:30.261Z,13.70
2018-07-15T03:17:03.117Z,13.60
2018-07-15T03:19:35.930Z,13.52
2018-07-15T03:22:08.970Z,13.48
2018-07-15T03:24:41.785Z,13.53
2018-07-15T03:27:14.249Z,13.70
2018-07-15T03:29:46.769Z,13.82
2018-07-15T03:32:20.584Z,13.89
2018-07-15T03:34:53.339Z,13.82
2018-07-15T03:37:25.733Z,13.74
2018-07-15T03:39:59.570Z,13.80
2018-07-15T03:42:32.117Z,13.78
2018-07-15T03:45:07.582Z,13.82
2018-07-15T03:47:40.654Z,13.91
2018-07-15T03:50:18.042Z,13.92
2018-07-15T03:52:50.849Z,13.88
2018-07-15T03:57:57.514Z,14.05
2018-07-15T04:00:31.473Z,14.18
2018-07-15T04:03:04.174Z,14.32
2018-07-15T04:05:37.641Z,14.34
2018-07-15T04:08:10.225Z,14.19
2018-07-15T04:10:43.857Z,13.97
2018-07-15T04:13:16.377Z,13.79
2018-07-15T04:15:49.214Z,13.72
2018-07-15T04:18:22.612Z,13.67
2018-07-15T04:20:55.392Z,13.84
2018-07-15T04:23:29.386Z,14.06
2018-07-15T04:26:02.677Z,14.32
2018-07-15T04:28:39.496Z,14.36
2018-07-15T04:31:13.064Z,14.35
2018-07-15T04:33:45.565Z,14.28
2018-07-15T04:36:17.982Z,14.18
2018-07-15T04:38:51.573Z,14.11
2018-07-15T04:41:25.708Z,14.27
2018-07-15T04:43:58.218Z,14.49
2018-07-15T04:46:31.090Z,14.68
2018-07-15T04:49:03.630Z,14.85
2018-07-15T04:51:36.796Z,15.01
2018-07-15T04:54:09.749Z,15.17
2018-07-15T04:56:42.559Z,15.29
2018-07-15T04:59:16.964Z,15.45
2018-07-15T05:01:51.643Z,15.50
2018-07-15T05:04:29.417Z,15.54
2018-07-15T05:07:02.273Z,15.67
2018-07-15T05:09:34.833Z,15.76
2018-07-15T05:12:09.505Z,15.80
2018-07-15T05:14:42.419Z,15.83
2018-07-15T05:17:14.990Z,15.88
2018-07-15T05:19:47.574Z,15.93
2018-07-15T05:22:21.506Z,15.98
2018-07-15T05:24:54.845Z,16.08
2018-07-15T05:27:27.584Z,16.19
2018-07-15T05:30:04.143Z,16.30
2018-07-15T05:32:36.832Z,16.41
2018-07-15T05:35:09.593Z,16.55
2018-07-15T05:37:45.241Z,16.70
2018-07-15T05:40:17.863Z,16.87
2018-07-15T05:42:51.494Z,17.00
2018-07-15T05:45:25.029Z,17.11
2018-07-15T05:47:58.102Z,17.21
2018-07-15T05:50:31.775Z,17.33
2018-07-15T05:53:05.697Z,17.54
2018-07-15T05:55:38.080Z,17.67
2018-07-15T05:58:11.383Z,17.83
2018-07-15T06:00:44.406Z,17.98
2018-07-15T06:03:19.195Z,18.08
2018-07-15T06:05:52.995Z,18.14
2018-07-15T06:08:27.901Z,18.19
2018-07-15T06:11:03.384Z,18.36
2018-07-15T06:13:38.056Z,18.64
2018-07-15T06:16:12.128Z,18.85
2018-07-15T06:18:44.745Z,19.06
2018-07-15T06:21:17.353Z,19.32
2018-07-15T06:23:50.390Z,19.71
2018-07-15T06:26:22.853Z,19.82
2018-07-15T06:28:56.112Z,19.86
2018-07-15T06:31:29.855Z,20.08
2018-07-15T06:34:03.720Z,20.17
2018-07-15T06:36:39.094Z,20.34
2018-07-15T06:39:14.136Z,20.45
2018-07-15T06:41:51.320Z,20.62
2018-07-15T06:44:25.171Z,20.87
2018-07-15T06:46:58.270Z,20.98
2018-07-15T06:49:32.884Z,21.07
2018-07-15T06:52:06.737Z,21.20
2018-07-15T06:54:40.274Z,21.30
2018-07-15T06:57:13.826Z,21.46
2018-07-15T06:59:47.877Z,21.51
2018-07-15T07:02:21.605Z,21.56
2018-07-15T07:04:55.357Z,21.58
2018-07-15T07:07:28.060Z,21.58
2018-07-15T07:10:01.931Z,21.70
2018-07-15T07:12:34.435Z,21.81
2018-07-15T07:15:07.794Z,21.90
2018-07-15T07:17:45.582Z,21.88
2018-07-15T07:20:18.801Z,21.83
2018-07-15T07:22:51.294Z,21.79
2018-07-15T07:25:25.152Z,21.83
2018-07-15T07:27:59.684Z,21.95
2018-07-15T07:30:34.109Z,22.13
2018-07-15T07:33:10.018Z,22.10
2018-07-15T07:35:42.953Z,22.30
2018-07-15T07:38:15.616Z,22.43
2018-07-15T07:40:50.212Z,22.37
2018-07-15T07:43:23.145Z,22.34
2018-07-15T07:45:56.550Z,22.41
2018-07-15T07:48:30.049Z,22.67
2018-07-15T07:51:03.595Z,22.96
2018-07-15T07:53:36.939Z,23.64
2018-07-15T07:56:10.769Z,24.42
2018-07-15T07:58:45.940Z,25.47
2018-07-15T08:01:20.621Z,26.09
2018-07-15T08:03:55.669Z,26.89
2018-07-15T08:06:30.607Z,27.66
2018-07-15T08:09:15.776Z,28.14
2018-07-15T08:11:50.588Z,28.08
2018-07-15T08:14:23.472Z,28.11
2018-07-15T08:16:56.965Z,28.59
2018-07-15T08:19:29.597Z,29.09
2018-07-15T08:22:03.164Z,29.25
2018-07-15T08:24:39.045Z,29.38
2018-07-15T08:27:12.248Z,29.47
2018-07-15T08:30:08.371Z,29.71
2018-07-15T08:32:41.617Z,29.68
2018-07-15T08:35:18.679Z,29.23
2018-07-15T08:37:56.733Z,29.42
2018-07-15T08:40:30.420Z,29.63
2018-07-15T08:43:03.864Z,29.65
2018-07-15T08:45:36.600Z,29.98
2018-07-15T08:48:16.760Z,29.38
2018-07-15T08:50:50.249Z,29.17
2018-07-15T08:53:24.004Z,28.91
2018-07-15T08:55:58.090Z,28.84
2018-07-15T08:58:32.326Z,29.19
2018-07-15T09:01:06.587Z,28.86
2018-07-15T09:03:47.308Z,28.77
2018-07-15T09:06:21.145Z,28.24
2018-07-15T09:08:59.044Z,27.92
2018-07-15T09:11:32.055Z,28.19
2018-07-15T09:14:05.294Z,28.71
2018-07-15T09:16:39.582Z,28.95
2018-07-15T09:19:13.278Z,29.09
2018-07-15T09:21:46.558Z,29.42
2018-07-15T09:24:22.407Z,29.26
2018-07-15T09:26:59.119Z,29.27
2018-07-15T09:29:36.973Z,29.46
2018-07-15T09:32:11.906Z,29.30
2018-07-15T09:34:46.367Z,29.40
2018-07-15T09:37:22.924Z,29.67
2018-07-15T09:40:03.009Z,29.91
2018-07-15T09:42:37.746Z,30.24
2018-07-15T09:45:14.289Z,30.56
2018-07-15T09:47:47.747Z,30.17
2018-07-15T09:50:23.785Z,29.99
2018-07-15T09:52:59.931Z,29.90
2018-07-15T09:55:34.055Z,30.10
2018-07-15T09:58:11.911Z,30.16
2018-07-15T10:00:53.540Z,30.00
2018-07-15T10:03:28.044Z,30.18
2018-07-15T10:06:03.768Z,30.34
2018-07-15T10:08:37.250Z,30.19
2018-07-15T10:11:10.617Z,30.17
2018-07-15T10:13:50.098Z,29.44
2018-07-15T10:16:25.380Z,29.53
2018-07-15T10:19:00.350Z,29.20
2018-07-15T10:21:37.773Z,29.26
2018-07-15T10:24:14.008Z,29.58
2018-07-15T10:26:48.689Z,30.10
2018-07-15T10:29:23.317Z,30.08
2018-07-15T10:31:55.848Z,29.98
2018-07-15T10:34:29.488Z,29.93
2018-07-15T10:37:02.340Z,29.83
2018-07-15T10:39:36.796Z,29.70
2018-07-15T10:42:11.304Z,29.78
2018-07-15T10:44:48.383Z,29.76
2018-07-15T10:47:24.523Z,30.15
2018-07-15T10:49:58.587Z,30.27
2018-07-15T10:52:33.623Z,29.90
2018-07-15T10:55:07.135Z,29.73
2018-07-15T10:57:40.461Z,29.76
2018-07-15T11:00:16.473Z,29.78
2018-07-15T11:02:52.492Z,29.82
2018-07-15T11:05:25.452Z,29.95
2018-07-15T11:07:58.336Z,29.86
2018-07-15T11:10:32.161Z,30.11
2018-07-15T11:13:06.491Z,30.42
2018-07-15T11:15:41.481Z,30.65
2018-07-15T11:18:23.528Z,30.48
2018-07-15T11:20:57.476Z,30.79
2018-07-15T11:23:33.764Z,30.81
2018-07-15T11:26:11.601Z,30.79
2018-07-15T11:28:48.383Z,30.90
2018-07-15T11:31:23.438Z,30.79
2018-07-15T11:34:02.606Z,31.30
2018-07-15T11:36:37.445Z,31.62
2018-07-15T11:39:11.399Z,31.89
2018-07-15T11:41:44.582Z,32.16
2018-07-15T11:44:20.212Z,32.54
2018-07-15T11:47:02.440Z,32.52
2018-07-15T11:49:35.996Z,31.61
2018-07-15T11:52:12.269Z,31.15
2018-07-15T11:54:47.293Z,30.94
2018-07-15T11:57:21.183Z,30.70
2018-07-15T11:59:57.929Z,30.92
2018-07-15T12:02:33.431Z,30.81
2018-07-15T12:05:07.745Z,30.77
2018-07-15T12:07:42.311Z,30.70
2018-07-15T12:10:17.267Z,30.86
2018-07-15T12:12:51.026Z,30.69
2018-07-15T12:15:25.741Z,30.62
2018-07-15T12:18:01.085Z,30.72
2018-07-15T12:20:40.218Z,30.75
2018-07-15T12:23:14.402Z,31.03
2018-07-15T12:25:47.942Z,31.30
2018-07-15T12:28:20.919Z,31.43
2018-07-15T12:30:54.231Z,31.40
2018-07-15T12:33:27.662Z,31.21
2018-07-15T12:36:04.796Z,31.12
2018-07-15T12:38:41.030Z,31.38
2018-07-15T12:41:14.577Z,31.53
2018-07-15T12:43:48.092Z,31.61
2018-07-15T12:46:23.265Z,31.90
2018-07-15T12:48:55.924Z,31.69
2018-07-15T12:51:32.616Z,31.67
2018-07-15T12:54:06.805Z,31.60
2018-07-15T12:56:41.751Z,31.63
2018-07-15T12:59:18.202Z,31.95
2018-07-15T13:01:52.223Z,31.94
2018-07-15T13:04:26.683Z,32.25
2018-07-15T13:07:03.318Z,32.63
2018-07-15T13:09:36.625Z,32.57
2018-07-15T13:12:15.950Z,32.49
2018-07-15T13:14:54.503Z,32.50
2018-07-15T13:17:29.789Z,32.68
2018-07-15T13:20:05.623Z,32.62
2018-07-15T13:22:43.893Z,32.72
2018-07-15T13:25:20.552Z,32.91
2018-07-15T13:27:55.587Z,33.20
2018-07-15T13:30:34.280Z,32.87
2018-07-15T13:33:09.444Z,32.67
2018-07-15T13:35:58.017Z,32.93
2018-07-15T13:38:34.503Z,32.99
2018-07-15T13:41:10.167Z,33.37
2018-07-15T13:43:52.133Z,33.56
2018-07-15T13:46:29.055Z,33.14
2018-07-15T13:49:02.473Z,33.10
2018-07-15T13:51:38.107Z,33.26
2018-07-15T13:54:10.968Z,33.12
2018-07-15T13:56:43.663Z,32.90
2018-07-15T13:59:17.625Z,32.36
2018-07-15T14:01:51.209Z,32.29
2018-07-15T14:04:31.614Z,32.39
2018-07-15T14:07:13.950Z,32.53
2018-07-15T14:09:51.997Z,32.67
2018-07-15T14:12:27.926Z,32.26
2018-07-15T14:15:05.336Z,32.65
2018-07-15T14:17:39.335Z,32.96
2018-07-15T14:20:24.366Z,33.26
2018-07-15T14:23:00.457Z,33.39
2018-07-15T14:25:37.366Z,33.72
2018-07-15T14:28:23.641Z,33.85
2018-07-15T14:30:57.993Z,33.37
2018-07-15T14:33:51.397Z,33.30
2018-07-15T14:36:28.704Z,33.44
2018-07-15T14:39:04.374Z,33.44
2018-07-15T14:41:46.127Z,33.44
2018-07-15T14:44:20.266Z,33.64
2018-07-15T14:46:55.909Z,33.89
2018-07-15T14:49:29.377Z,33.44
2018-07-15T14:52:04.471Z,33.40
2018-07-15T14:54:39.425Z,33.49
2018-07-15T14:57:13.429Z,33.37
2018-07-15T14:59:47.530Z,33.23
2018-07-15T15:02:20.064Z,33.03
2018-07-15T15:04:54.391Z,32.83
2018-07-15T15:07:28.919Z,32.53
2018-07-15T15:10:02.592Z,32.52
2018-07-15T15:12:42.669Z,32.44
2018-07-15T15:15:17.708Z,32.52
2018-07-15T15:17:54.024Z,32.95
2018-07-15T15:20:30.213Z,33.08
2018-07-15T15:23:04.605Z,33.26
2018-07-15T15:25:39.966Z,33.01
2018-07-15T15:28:15.720Z,32.94
2018-07-15T15:30:56.078Z,32.81
2018-07-15T15:33:29.425Z,32.89
2018-07-15T15:36:03.052Z,33.09
2018-07-15T15:38:38.237Z,33.30
2018-07-15T15:41:15.733Z,33.09
2018-07-15T15:43:50.625Z,32.88
2018-07-15T15:46:25.447Z,32.81
2018-07-15T15:48:58.173Z,33.29
2018-07-15T15:51:33.846Z,33.93
2018-07-15T15:54:06.856Z,33.47
2018-07-15T15:56:42.539Z,33.00
2018-07-15T15:59:17.492Z,32.84
2018-07-15T16:01:51.885Z,32.54
2018-07-15T16:04:29.620Z,32.53
2018-07-15T16:07:11.258Z,32.59
2018-07-15T16:09:48.154Z,32.54
2018-07-15T16:12:25.138Z,32.33
2018-07-15T16:15:04.003Z,32.32
2018-07-15T16:17:50.488Z,32.17
2018-07-15T16:20:32.969Z,32.01
2018-07-15T16:23:09.346Z,31.84
2018-07-15T16:25:44.166Z,32.08
2018-07-15T16:28:19.955Z,32.49
2018-07-15T16:30:54.577Z,32.85
2018-07-15T16:33:43.642Z,33.28
2018-07-15T16:36:17.734Z,33.24
2018-07-15T16:38:56.695Z,32.94
2018-07-15T16:41:29.745Z,32.96
2018-07-15T16:44:04.882Z,32.95
2018-07-15T16:46:40.713Z,33.11
2018-07-15T16:49:16.906Z,33.22
2018-07-15T16:51:51.313Z,33.12
2018-07-15T16:54:26.553Z,32.82
2018-07-15T16:57:04.777Z,32.78
2018-07-15T16:59:38.715Z,32.83
2018-07-15T17:02:13.360Z,32.30
2018-07-15T17:04:51.022Z,32.01
2018-07-15T17:07:25.278Z,31.87
2018-07-15T17:09:59.305Z,31.89
2018-07-15T17:12:33.909Z,31.73
2018-07-15T17:15:07.934Z,31.57
2018-07-15T17:17:42.292Z,31.55
2018-07-15T17:20:17.670Z,31.67
2018-07-15T17:22:53.670Z,31.29
2018-07-15T17:25:26.955Z,31.18
2018-07-15T17:28:01.369Z,30.97
2018-07-15T17:30:36.849Z,30.72
2018-07-15T17:33:10.005Z,30.51
2018-07-15T17:35:44.533Z,30.25
2018-07-15T17:38:20.696Z,30.12
2018-07-15T17:41:04.842Z,29.81
2018-07-15T17:43:38.449Z,29.58
2018-07-15T17:46:12.563Z,29.49
2018-07-15T17:48:46.871Z,29.39
2018-07-15T17:51:21.141Z,29.36
2018-07-15T17:53:56.660Z,29.20
2018-07-15T17:56:34.175Z,29.18
2018-07-15T17:59:10.395Z,29.13
2018-07-15T18:01:43.184Z,29.11
2018-07-15T18:04:17.569Z,29.09
2018-07-15T18:06:51.252Z,29.21
2018-07-15T18:09:25.300Z,29.16
2018-07-15T18:11:58.883Z,28.96
2018-07-15T18:14:37.700Z,28.81
2018-07-15T18:17:11.564Z,28.49
2018-07-15T18:19:53.482Z,28.21
2018-07-15T18:22:32.008Z,27.95
2018-07-15T18:25:15.333Z,27.76
2018-07-15T18:27:50.309Z,27.66
2018-07-15T18:30:30.808Z,27.44
2018-07-15T18:33:05.117Z,27.19
2018-07-15T18:35:40.000Z,27.09
2018-07-15T18:38:21.947Z,26.91
2018-07-15T18:40:55.042Z,26.75
2018-07-15T18:43:30.007Z,26.63
2018-07-15T18:46:05.999Z,26.55
2018-07-15T18:48:41.779Z,26.37
2018-07-15T18:51:14.356Z,26.24
2018-07-15T18:53:48.342Z,26.16
2018-07-15T18:56:21.913Z,25.98
2018-07-15T18:58:56.593Z,25.83
2018-07-15T19:01:34.556Z,25.72
2018-07-15T19:04:08.252Z,25.64
2018-07-15T19:06:40.846Z,25.53
2018-07-15T19:09:17.387Z,25.38
2018-07-15T19:11:51.200Z,25.27
2018-07-15T19:14:24.676Z,25.12
2018-07-15T19:17:12.054Z,24.98
2018-07-15T19:19:51.718Z,24.92
2018-07-15T19:22:45.091Z,24.83
2018-07-15T19:25:20.358Z,24.70
2018-07-15T19:27:53.512Z,24.57
2018-07-15T19:30:32.017Z,24.39
2018-07-15T19:33:08.373Z,24.17
2018-07-15T19:35:44.478Z,23.90
2018-07-15T19:38:26.489Z,23.62
2018-07-15T19:41:03.629Z,23.33
2018-07-15T19:43:41.334Z,23.07
2018-07-15T19:46:19.953Z,22.95
2018-07-15T19:48:55.320Z,22.75
2018-07-15T19:51:31.493Z,22.68
2018-07-15T19:54:06.129Z,22.62
2018-07-15T19:56:40.447Z,22.48
2018-07-15T19:59:13.176Z,22.33
2018-07-15T20:01:46.796Z,22.23
2018-07-15T20:04:22.049Z,22.11
2018-07-15T20:06:55.765Z,21.95
2018-07-15T20:09:30.519Z,21.85
2018-07-15T20:12:05.732Z,21.77
2018-07-15T20:14:47.558Z,21.49
2018-07-15T20:17:21.688Z,21.22
2018-07-15T20:19:56.073Z,21.03
2018-07-15T20:22:42.604Z,20.77
2018-07-15T20:25:16.450Z,20.53
2018-07-15T20:27:51.751Z,20.34
2018-07-15T20:30:37.541Z,20.18
2018-07-15T20:33:16.680Z,20.09
2018-07-15T20:35:52.694Z,19.99
2018-07-15T20:38:30.249Z,19.94
2018-07-15T20:41:03.473Z,19.85
2018-07-15T20:43:41.580Z,19.74
2018-07-15T20:46:15.750Z,19.65
2018-07-15T20:48:52.127Z,19.60
2018-07-15T20:51:25.907Z,19.62
2018-07-15T20:54:01.807Z,19.73
2018-07-15T20:56:38.965Z,19.65
2018-07-15T20:59:20.373Z,19.59
2018-07-15T21:01:55.340Z,19.50
2018-07-15T21:04:38.592Z,19.43
2018-07-15T21:07:15.537Z,19.34
2018-07-15T21:09:57.726Z,19.28
2018-07-15T21:12:34.981Z,19.16
2018-07-15T21:15:14.545Z,19.24
2018-07-15T21:17:49.405Z,19.29
2018-07-15T21:20:30.109Z,19.28
2018-07-15T21:23:18.545Z,19.19
2018-07-15T21:25:53.961Z,19.00
2018-07-15T21:28:30.673Z,18.80
2018-07-15T21:31:05.309Z,18.60
2018-07-15T21:33:37.871Z,18.55
2018-07-15T21:36:13.372Z,18.51
2018-07-15T21:38:48.434Z,18.55
2018-07-15T21:41:23.183Z,18.47
2018-07-15T21:43:57.397Z,18.25
2018-07-15T21:46:30.768Z,17.94
2018-07-15T21:49:09.244Z,17.63
2018-07-15T21:51:43.481Z,17.36
2018-07-15T21:54:19.287Z,17.24
2018-07-15T21:56:52.945Z,17.18
2018-07-15T21:59:28.249Z,17.20
2018-07-15T22:02:02.766Z,17.17
2018-07-15T22:04:37.978Z,17.08
2018-07-15T22:07:33.053Z,17.07
2018-07-15T22:10:37.328Z,17.07
2018-07-15T22:13:16.134Z,17.26
2018-07-15T22:15:49.673Z,17.29
2018-07-15T22:18:26.809Z,17.32
2018-07-15T22:21:01.627Z,17.27
2018-07-15T22:23:36.337Z,17.22
2018-07-15T22:26:11.263Z,17.24
2018-07-15T22:28:43.992Z,17.32
2018-07-15T22:31:17.696Z,17.38
2018-07-15T22:33:52.072Z,17.28
2018-07-15T22:36:24.671Z,17.17
2018-07-15T22:38:58.790Z,17.00
2018-07-15T22:41:31.594Z,16.83
2018-07-15T22:44:05.230Z,16.74
2018-07-15T22:46:38.800Z,16.74
2018-07-15T22:49:12.861Z,16.66
2018-07-15T22:51:46.450Z,16.49
2018-07-15T22:54:20.584Z,16.25
2018-07-15T22:56:53.712Z,16.11
2018-07-15T22:59:26.664Z,15.94
2018-07-15T23:02:00.829Z,15.77
2018-07-15T23:05:35.244Z,15.69
2018-07-15T23:08:08.265Z,15.43
2018-07-15T23:10:40.765Z,15.33
2018-07-15T23:13:15.019Z,15.22
2018-07-15T23:15:48.011Z,15.21
2018-07-15T23:18:20.601Z,15.23
2018-07-15T23:20:54.238Z,15.15
2018-07-15T23:23:26.784Z,15.16
2018-07-15T23:26:03.027Z,15.17
2018-07-15T23:28:36.846Z,15.43
2018-07-15T23:31:09.461Z,15.86
2018-07-15T23:33:42.026Z,16.17
2018-07-15T23:36:16.772Z,16.60
2018-07-15T23:38:49.321Z,16.80
2018-07-15T23:41:21.740Z,17.03
2018-07-15T23:43:54.629Z,17.09
2018-07-15T23:46:27.758Z,17.09
2018-07-15T23:49:01.625Z,17.16
2018-07-15T23:51:36.452Z,17.18
2018-07-15T23:54:09.478Z,17.11
2018-07-15T23:56:44.800Z,17.08
2018-07-15T23:59:19.214Z,17.05
